Time;durP1;ratioP1;P1;durP2;ratioP2;P2;SDS_P1;SDS_P2;PMS_P1;PMS_P2;Temp;Humidity;BMP_temperature;BMP_pressure;BME280_temperature;BME280_humidity;BME280_pressure;Samples;Min_cycle;Max_cycle;Signal;HPM_P1;HPM_P2
2023/07/18 00:00:51;;;;;;;1.97;1.77;;;;;;;19.99;44.42;98479.81;5047403;28;20474;-78
2023/07/18 00:03:19;;;;;;;2.73;1.60;;;;;;;20.19;44.19;98482.03;5041505;28;20973;-79
2023/07/18 00:05:47;;;;;;;2.63;1.83;;;;;;;20.35;44.45;98481.16;5046048;28;20988;-79
2023/07/18 00:08:14;;;;;;;2.00;1.80;;;;;;;20.45;43.70;98483.28;5046974;28;20479;-78
2023/07/18 00:10:41;;;;;;;2.93;1.70;;;;;;;20.18;44.34;98488.59;5044098;28;20471;-79
2023/07/18 00:13:08;;;;;;;2.03;1.50;;;;;;;20.19;44.03;98483.94;5044086;28;20452;-79
2023/07/18 00:15:35;;;;;;;3.53;1.50;;;;;;;20.38;43.90;98480.69;5045663;28;20980;-79
2023/07/18 00:18:02;;;;;;;5.10;1.90;;;;;;;20.07;44.67;98482.16;5045439;28;20457;-79
2023/07/18 00:20:29;;;;;;;2.20;1.70;;;;;;;19.90;44.45;98483.25;5042992;28;20477;-79
2023/07/18 00:22:57;;;;;;;1.97;1.77;;;;;;;19.86;44.60;98482.06;5043739;28;20456;-80
2023/07/18 00:25:23;;;;;;;1.90;1.70;;;;;;;19.90;44.31;98486.81;5050625;28;20489;-79
2023/07/18 00:27:53;;;;;;;2.00;1.50;;;;;;;19.79;44.55;98482.28;5052158;28;20448;-79
2023/07/18 00:30:21;;;;;;;3.57;1.93;;;;;;;19.86;44.67;98480.16;5044807;28;20560;-79
2023/07/18 00:32:49;;;;;;;1.67;1.30;;;;;;;19.79;44.88;98479.53;5047785;28;20970;-79
2023/07/18 00:35:16;;;;;;;3.10;1.70;;;;;;;19.80;44.89;98489.44;5047231;28;20550;-79
2023/07/18 00:37:44;;;;;;;1.70;1.60;;;;;;;19.97;45.04;98479.25;5045196;28;20962;-79
2023/07/18 00:40:14;;;;;;;2.80;2.03;;;;;;;19.82;44.93;98495.47;5041376;28;20483;-79
2023/07/18 00:42:42;;;;;;;2.50;1.93;;;;;;;19.45;46.08;98497.88;5044408;28;21045;-79
2023/07/18 00:45:10;;;;;;;3.87;2.10;;;;;;;18.91;48.89;98489.19;5044337;28;20510;-78
2023/07/18 00:47:40;;;;;;;3.57;2.07;;;;;;;18.67;50.42;98499.41;5048232;28;20522;-78
2023/07/18 00:50:08;;;;;;;3.37;1.70;;;;;;;18.43;51.21;98506.00;5043725;28;20513;-78
2023/07/18 00:52:35;;;;;;;2.50;1.67;;;;;;;18.31;51.51;98508.75;5047725;28;21036;-79
2023/07/18 00:55:03;;;;;;;2.30;1.70;;;;;;;18.49;50.35;98502.31;5040519;28;20459;-79
2023/07/18 00:57:35;;;;;;;4.83;2.00;;;;;;;18.66;49.74;98485.94;5044738;28;21074;-79
2023/07/18 01:00:05;;;;;;;3.60;1.83;;;;;;;18.71;49.14;98486.06;5046378;28;20592;-80
2023/07/18 01:02:32;;;;;;;3.70;2.20;;;;;;;18.91;48.62;98488.34;5044258;28;20459;-79
2023/07/18 01:04:58;;;;;;;2.53;1.83;;;;;;;18.97;48.18;98484.63;5043337;28;20981;-79
2023/07/18 01:07:25;;;;;;;2.80;1.80;;;;;;;19.16;47.59;98485.28;5035083;28;20451;-80
2023/07/18 01:09:53;;;;;;;2.00;1.80;;;;;;;19.24;47.36;98485.69;5046038;28;20466;-80
2023/07/18 01:12:20;;;;;;;2.80;1.90;;;;;;;19.12;48.26;98482.19;5043985;28;20467;-79
2023/07/18 01:14:49;;;;;;;2.80;1.90;;;;;;;18.93;49.80;98483.44;5045838;28;20451;-79
2023/07/18 01:17:16;;;;;;;2.20;2.00;;;;;;;19.05;49.34;98478.75;5044387;28;21119;-79
2023/07/18 01:19:43;;;;;;;2.07;1.80;;;;;;;19.22;48.72;98473.28;5044678;28;20482;-79
2023/07/18 01:22:11;;;;;;;3.43;1.90;;;;;;;19.14;47.90;98471.81;5044314;28;20554;-79
2023/07/18 01:24:38;;;;;;;3.70;1.90;;;;;;;19.23;47.84;98474.94;5038043;28;20510;-80
2023/07/18 01:27:05;;;;;;;4.67;1.90;;;;;;;19.24;48.82;98471.13;5042421;28;20566;-78
2023/07/18 01:29:32;;;;;;;3.30;2.10;;;;;;;19.07;48.95;98471.13;5045719;28;20458;-79
2023/07/18 01:31:59;;;;;;;3.73;2.23;;;;;;;18.97;49.27;98459.94;5043084;28;20490;-79
2023/07/18 01:34:26;;;;;;;3.50;2.30;;;;;;;18.76;50.33;98465.06;5045054;28;20491;-79
2023/07/18 01:36:54;;;;;;;2.60;1.90;;;;;;;18.79;49.63;98459.06;5043859;28;20513;-78
2023/07/18 01:39:22;;;;;;;2.37;1.97;;;;;;;18.49;50.46;98469.41;5043643;28;20545;-78
2023/07/18 01:41:49;;;;;;;3.60;2.20;;;;;;;18.52;50.71;98468.09;5037181;28;20615;-78
2023/07/18 01:44:16;;;;;;;2.53;1.77;;;;;;;18.66;49.99;98470.31;5045280;28;20470;-79
2023/07/18 01:46:43;;;;;;;4.40;2.50;;;;;;;18.85;49.52;98461.88;5047207;28;20598;-79
2023/07/18 01:49:11;;;;;;;3.00;2.07;;;;;;;18.89;49.30;98457.59;5044282;28;20451;-79
2023/07/18 01:51:37;;;;;;;2.83;2.37;;;;;;;18.81;49.62;98458.00;5045134;28;20479;-79
2023/07/18 01:54:04;;;;;;;2.63;2.13;;;;;;;18.96;49.32;98463.75;5041258;28;20461;-79
2023/07/18 01:56:33;;;;;;;5.23;2.17;;;;;;;18.89;49.46;98457.59;5044666;28;20509;-79
2023/07/18 01:58:59;;;;;;;2.97;2.30;;;;;;;18.62;50.26;98462.81;5040457;28;20495;-79
2023/07/18 02:01:27;;;;;;;2.63;2.00;;;;;;;18.46;50.82;98467.16;5049763;28;20506;-79
2023/07/18 02:03:54;;;;;;;5.60;2.60;;;;;;;18.39;50.85;98469.19;5047911;28;20505;-79
2023/07/18 02:06:24;;;;;;;3.53;2.20;;;;;;;18.27;51.42;98465.63;5045868;28;20993;-79
2023/07/18 02:08:52;;;;;;;2.37;2.10;;;;;;;18.22;51.83;98470.97;5043880;28;20454;-79
2023/07/18 02:11:18;;;;;;;5.93;2.37;;;;;;;18.36;51.48;98458.69;5047734;28;20557;-80
2023/07/18 02:13:46;;;;;;;6.10;2.37;;;;;;;18.24;51.98;98468.84;5048264;28;20443;-79
2023/07/18 02:16:13;;;;;;;2.47;2.20;;;;;;;18.22;52.47;98468.25;5041118;28;20466;-79
2023/07/18 02:18:40;;;;;;;3.50;2.57;;;;;;;17.90;54.04;98465.06;5046446;28;20451;-78
2023/07/18 02:21:07;;;;;;;5.93;3.20;;;;;;;17.56;55.83;98470.25;5048381;28;20471;-79
2023/07/18 02:23:34;;;;;;;3.93;3.07;;;;;;;17.50;56.74;98464.91;5047360;28;20822;-79
2023/07/18 02:26:00;;;;;;;4.83;3.03;;;;;;;17.38;57.52;98462.97;5047576;28;20568;-79
2023/07/18 02:28:27;;;;;;;3.73;3.10;;;;;;;17.59;57.23;98447.88;5044384;28;20512;-79
2023/07/18 02:30:55;;;;;;;4.80;3.00;;;;;;;17.73;57.04;98443.06;5038114;28;20478;-79
2023/07/18 02:33:22;;;;;;;4.63;3.67;;;;;;;17.89;56.64;98447.78;5047812;28;20447;-79
2023/07/18 02:35:50;;;;;;;4.47;4.07;;;;;;;17.83;57.13;98457.00;5046639;28;20863;-79
2023/07/18 02:38:17;;;;;;;5.47;3.60;;;;;;;17.63;58.00;98453.72;5047535;28;20451;-78
2023/07/18 02:40:44;;;;;;;4.83;3.77;;;;;;;17.51;58.34;98458.38;5046736;28;20557;-79
2023/07/18 02:43:11;;;;;;;4.57;3.20;;;;;;;17.51;58.57;98467.41;5049207;28;20446;-79
2023/07/18 02:45:38;;;;;;;5.00;3.47;;;;;;;17.28;59.32;98457.25;5047942;28;20574;-79
2023/07/18 02:48:07;;;;;;;3.70;3.33;;;;;;;17.33;59.38;98460.13;5039376;28;20447;-79
2023/07/18 02:50:33;;;;;;;5.90;3.50;;;;;;;17.38;59.26;98462.97;5046398;28;20548;-79
2023/07/18 02:53:00;;;;;;;6.20;3.53;;;;;;;17.30;59.66;98460.59;5048994;28;20520;-79
2023/07/18 02:55:28;;;;;;;5.60;4.00;;;;;;;17.44;59.53;98462.03;5048612;28;20461;-79
2023/07/18 02:57:54;;;;;;;4.00;3.60;;;;;;;17.55;58.91;98457.63;5046944;28;20455;-78
2023/07/18 03:00:25;;;;;;;4.23;3.37;;;;;;;17.27;60.02;98463.78;5049325;28;20926;-79
2023/07/18 03:02:53;;;;;;;5.57;3.97;;;;;;;17.10;60.70;98462.81;5040821;28;21037;-78
2023/07/18 03:05:22;;;;;;;5.90;3.60;;;;;;;17.05;60.98;98466.22;5047753;28;20451;-79
2023/07/18 03:07:50;;;;;;;4.63;3.83;;;;;;;17.26;60.31;98473.06;5048577;28;20454;-79
2023/07/18 03:10:17;;;;;;;4.70;3.70;;;;;;;17.11;60.94;98468.03;5044353;28;20540;-79
2023/07/18 03:12:44;;;;;;;4.63;3.70;;;;;;;17.04;61.35;98458.25;5049416;28;20451;-78
2023/07/18 03:15:11;;;;;;;5.07;3.57;;;;;;;16.94;61.87;98460.72;5043042;28;20995;-78
2023/07/18 03:17:38;;;;;;;5.80;3.87;;;;;;;16.87;62.19;98470.94;5048397;28;20894;-78
2023/07/18 03:20:16;;;;;;;4.80;3.90;;;;;;;16.85;62.35;98462.13;5046044;28;20528;-79
2023/07/18 03:22:45;;;;;;;3.90;3.60;;;;;;;17.06;61.58;98464.34;5040796;28;20578;-79
2023/07/18 03:25:12;;;;;;;4.60;3.63;;;;;;;17.24;61.48;98469.72;5047129;28;20490;-78
2023/07/18 03:27:40;;;;;;;4.10;3.70;;;;;;;17.27;61.40;98465.69;5046268;28;20497;-79
2023/07/18 03:30:10;;;;;;;5.20;4.07;;;;;;;17.05;62.07;98463.50;5046974;28;21039;-79
2023/07/18 03:32:37;;;;;;;4.73;3.63;;;;;;;17.01;62.41;98464.19;5049609;28;20562;-78
2023/07/18 03:35:05;;;;;;;5.50;4.00;;;;;;;16.88;62.54;98465.25;5049211;28;20538;-79
2023/07/18 03:37:32;;;;;;;4.47;4.07;;;;;;;16.88;62.86;98457.03;5041166;28;21033;-78
2023/07/18 03:40:00;;;;;;;4.60;3.80;;;;;;;16.88;62.81;98458.94;5047381;28;20660;-79
2023/07/18 03:42:26;;;;;;;6.30;3.70;;;;;;;16.85;62.91;98453.94;5047502;28;20543;-79
2023/07/18 03:44:54;;;;;;;3.90;3.50;;;;;;;16.92;62.68;98451.91;5046177;28;20602;-78
2023/07/18 03:47:20;;;;;;;5.40;3.30;;;;;;;16.85;62.79;98446.56;5045212;28;20483;-79
2023/07/18 03:49:47;;;;;;;6.77;4.10;;;;;;;16.93;62.15;98439.91;5044321;28;20486;-78
2023/07/18 03:52:15;;;;;;;5.07;3.53;;;;;;;17.18;61.68;98435.13;5046459;28;20491;-78
2023/07/18 03:54:41;;;;;;;3.73;3.00;;;;;;;17.20;61.10;98443.09;5040886;28;20465;-78
2023/07/18 03:57:09;;;;;;;4.13;2.30;;;;;;;17.14;61.08;98433.91;5055873;28;20505;-78
2023/07/18 03:59:36;;;;;;;9.80;3.43;;;;;;;17.40;59.98;98436.22;5055735;28;20518;-78
2023/07/18 04:02:03;;;;;;;3.73;2.90;;;;;;;17.48;59.07;98428.72;5047733;28;20451;-78
2023/07/18 04:04:38;;;;;;;4.80;3.40;;;;;;;17.18;60.01;98435.13;5044786;28;20479;-78
2023/07/18 04:07:06;;;;;;;3.17;2.87;;;;;;;17.50;59.12;98441.13;5050570;28;20581;-78
2023/07/18 04:09:33;;;;;;;4.87;2.93;;;;;;;17.29;59.70;98447.97;5047652;28;20467;-79
2023/07/18 04:12:00;;;;;;;3.83;3.10;;;;;;;16.89;60.68;98446.94;5038471;28;20495;-86
2023/07/18 04:14:28;;;;;;;3.30;3.00;;;;;;;16.71;62.62;98447.81;5033254;28;20451;-73
2023/07/18 04:16:55;;;;;;;4.10;3.70;;;;;;;16.28;64.42;98447.91;5043651;28;20578;-71
2023/07/18 04:19:22;;;;;;;5.50;3.77;;;;;;;15.86;66.24;98453.22;5043966;28;20452;-71
2023/07/18 04:21:49;;;;;;;5.87;4.20;;;;;;;15.86;66.02;98450.50;5046248;28;20991;-74
2023/07/18 04:24:16;;;;;;;4.90;3.70;;;;;;;15.96;65.57;98453.50;5046672;28;20501;-71
2023/07/18 04:26:42;;;;;;;7.50;4.00;;;;;;;15.65;66.55;98449.00;5042784;28;20475;-74
2023/07/18 04:29:09;;;;;;;4.93;3.83;;;;;;;15.70;66.21;98442.88;5046638;28;20455;-66
2023/07/18 04:31:37;;;;;;;5.03;3.60;;;;;;;15.44;66.94;98444.75;5037928;28;20451;-66
2023/07/18 04:34:04;;;;;;;4.90;3.53;;;;;;;15.39;67.63;98458.22;5044968;28;20455;-66
2023/07/18 04:36:31;;;;;;;4.10;3.70;;;;;;;15.36;67.80;98445.03;5045638;28;20467;-66
2023/07/18 04:38:58;;;;;;;5.77;3.67;;;;;;;15.47;67.85;98451.66;5043192;28;20814;-86
2023/07/18 04:41:25;;;;;;;4.33;3.60;;;;;;;15.47;67.90;98448.94;5044837;28;20499;-77
2023/07/18 04:43:52;;;;;;;4.13;3.40;;;;;;;15.68;67.20;98442.25;5026186;28;20478;-86
2023/07/18 04:46:20;;;;;;;6.37;3.33;;;;;;;15.62;66.97;98448.63;5025263;28;20583;-83
2023/07/18 04:48:48;;;;;;;5.80;4.20;;;;;;;15.75;66.75;98446.59;5032602;28;20812;-79
2023/07/18 04:51:16;;;;;;;4.03;3.33;;;;;;;15.86;66.16;98439.56;5027180;28;20527;-79
2023/07/18 04:53:43;;;;;;;5.87;4.03;;;;;;;15.91;65.94;98442.47;5035276;28;20488;-80
2023/07/18 04:56:10;;;;;;;4.47;3.40;;;;;;;15.91;66.01;98441.63;5023641;28;20487;-81
2023/07/18 04:58:37;;;;;;;6.37;3.27;;;;;;;15.83;66.26;98440.03;4988181;28;20462;-81
2023/07/18 05:01:04;;;;;;;4.20;3.50;;;;;;;15.89;66.04;98447.31;5036066;28;20482;-79
2023/07/18 05:03:31;;;;;;;4.87;4.30;;;;;;;15.88;66.25;98445.66;5032546;28;20463;-80
2023/07/18 05:05:59;;;;;;;3.80;3.37;;;;;;;15.96;66.07;98442.59;5035639;28;20470;-78
2023/07/18 05:08:26;;;;;;;3.57;3.27;;;;;;;16.04;65.95;98439.56;5034429;28;20466;-80
2023/07/18 05:11:00;;;;;;;4.40;3.57;;;;;;;15.93;66.82;98439.47;5043157;28;21111;-79
2023/07/18 05:13:27;;;;;;;5.40;3.83;;;;;;;16.23;65.54;98434.13;5044699;28;20511;-79
2023/07/18 05:15:53;;;;;;;5.00;3.57;;;;;;;16.22;65.95;98436.03;5043222;28;20542;-81
2023/07/18 05:18:20;;;;;;;5.53;3.90;;;;;;;16.31;65.94;98428.31;5046421;28;20788;-70
2023/07/18 05:20:47;;;;;;;4.57;3.50;;;;;;;16.28;64.68;98428.78;5039198;28;20479;-79
2023/07/18 05:23:15;;;;;;;5.33;3.60;;;;;;;16.67;63.51;98427.47;5051655;28;20470;-86
2023/07/18 05:25:42;;;;;;;4.20;3.60;;;;;;;16.66;62.80;98429.34;5042939;28;20451;-87
2023/07/18 05:28:10;;;;;;;4.93;3.40;;;;;;;16.66;63.05;98429.34;5043366;28;20479;-86
2023/07/18 05:30:36;;;;;;;5.63;3.90;;;;;;;16.55;63.56;98430.13;5046012;28;20475;-85
2023/07/18 05:33:04;;;;;;;4.00;3.10;;;;;;;16.91;62.79;98425.63;5043014;28;20537;-86
2023/07/18 05:35:31;;;;;;;5.20;4.00;;;;;;;16.91;62.23;98431.09;5040629;28;20482;-86
2023/07/18 05:37:58;;;;;;;4.40;3.70;;;;;;;17.07;61.93;98433.19;5045488;28;20501;-86
2023/07/18 05:40:26;;;;;;;4.40;4.00;;;;;;;17.20;61.98;98426.69;5045180;28;20509;-86
2023/07/18 05:42:53;;;;;;;5.80;5.10;;;;;;;17.37;60.95;98425.75;5045131;28;20467;-85
2023/07/18 05:45:21;;;;;;;4.70;4.20;;;;;;;17.37;61.18;98431.22;5045748;28;20599;-86
2023/07/18 05:47:48;;;;;;;5.60;4.90;;;;;;;17.41;61.44;98428.84;5050444;28;20498;-86
2023/07/18 05:50:15;;;;;;;6.17;4.10;;;;;;;17.83;60.11;98420.56;5047897;28;20506;-86
2023/07/18 05:52:41;;;;;;;5.37;4.70;;;;;;;17.72;60.32;98416.75;5042158;28;20465;-87
2023/07/18 05:55:09;;;;;;;9.43;4.60;;;;;;;18.05;58.71;98416.94;5014532;28;20451;-87
2023/07/18 05:57:38;;;;;;;8.00;4.03;;;;;;;18.19;58.58;98413.97;4996864;28;20846;-90
2023/07/18 06:00:06;;;;;;;5.63;3.53;;;;;;;18.17;57.64;98410.63;5051014;28;20467;-90
2023/07/18 06:02:33;;;;;;;149.33;15.10;;;;;;;18.17;57.41;98408.72;5047052;28;20483;-80
2023/07/18 06:05:00;;;;;;;225.60;20.47;;;;;;;18.31;57.19;98401.88;5053271;28;20455;-74
2023/07/18 06:07:27;;;;;;;4.53;3.43;;;;;;;18.54;55.09;98405.59;5053562;28;20532;-85
2023/07/18 06:09:53;;;;;;;3.67;3.00;;;;;;;18.59;55.57;98400.22;5057035;28;20478;-87
2023/07/18 06:12:20;;;;;;;4.77;3.30;;;;;;;18.70;54.52;98391.97;5064322;28;20542;-85
2023/07/18 06:14:49;;;;;;;5.27;3.60;;;;;;;18.86;54.97;98392.25;5049993;28;20463;-87
2023/07/18 06:17:16;;;;;;;3.87;3.00;;;;;;;18.88;54.70;98390.09;5059071;28;20792;-83
2023/07/18 06:19:46;;;;;;;4.40;3.67;;;;;;;19.00;55.06;98391.69;5051838;28;20569;-86
2023/07/18 06:22:13;;;;;;;5.07;3.27;;;;;;;19.25;53.01;98388.53;5050780;28;20464;-88
2023/07/18 06:24:41;;;;;;;3.90;3.50;;;;;;;19.30;53.37;98382.31;5044273;28;20998;-83
2023/07/18 06:27:08;;;;;;;3.23;2.93;;;;;;;19.39;53.96;98384.41;5038894;28;20493;-87
2023/07/18 06:29:34;;;;;;;4.77;2.90;;;;;;;19.11;52.76;98381.75;5045802;28;20529;-88
2023/07/18 06:32:05;;;;;;;4.93;3.13;;;;;;;19.26;51.08;98386.63;5041776;28;20553;-81
2023/07/18 09:39:36;;;;;;;3.03;2.20;;;;;;;27.99;30.44;98213.44;5057026;28;20601;-89
2023/07/18 09:42:03;;;;;;;6.00;2.70;;;;;;;28.52;29.42;98221.22;5030422;28;20562;-88
2023/07/18 09:44:30;;;;;;;2.60;2.40;;;;;;;28.03;30.03;98215.31;5039297;28;21258;-88
2023/07/18 09:46:57;;;;;;;5.40;2.70;;;;;;;30.04;27.87;98203.25;5036938;28;20457;-89
2023/07/18 09:49:24;;;;;;;2.70;2.00;;;;;;;31.16;26.29;98196.88;5037130;28;20491;-89
2023/07/18 09:52:03;;;;;;;2.93;2.30;;;;;;;31.58;25.91;98204.28;5032387;28;20459;-89
2023/07/18 09:54:31;;;;;;;3.60;2.60;;;;;;;30.49;27.46;98216.94;5033660;28;20860;-88
2023/07/18 09:57:03;;;;;;;3.53;2.60;;;;;;;30.06;27.90;98221.31;5024072;28;20526;-89
2023/07/18 09:59:37;;;;;;;3.00;2.63;;;;;;;28.52;30.37;98229.56;5026906;28;20583;-90
2023/07/18 10:02:06;;;;;;;3.83;2.53;;;;;;;28.70;29.69;98248.88;5018234;28;20464;-88
2023/07/18 10:04:33;;;;;;;2.80;2.50;;;;;;;28.81;30.09;98265.38;4968916;28;20910;-90
2023/07/18 10:07:02;;;;;;;3.37;2.47;;;;;;;28.52;30.31;98285.28;5010566;28;20544;-87
2023/07/18 10:09:29;;;;;;;3.63;2.90;;;;;;;27.71;31.22;98290.56;5007392;28;20505;-84
2023/07/18 10:12:12;;;;;;;3.63;2.87;;;;;;;27.64;31.92;98292.91;5003115;28;20522;-86
2023/07/18 10:14:57;;;;;;;2.70;2.37;;;;;;;27.60;31.31;98284.38;5005410;28;20502;-90
2023/07/18 10:17:37;;;;;;;3.47;2.90;;;;;;;27.64;30.96;98273.44;5010327;28;20489;-88
2023/07/18 10:20:12;;;;;;;3.83;2.67;;;;;;;27.82;31.57;98258.63;5008963;28;20477;-87
2023/07/18 10:22:47;;;;;;;2.93;2.27;;;;;;;28.07;31.63;98233.03;5009340;28;20885;-87
2023/07/18 10:25:15;;;;;;;3.83;2.50;;;;;;;28.17;31.30;98211.69;5012999;28;20514;-85
2023/07/18 10:27:44;;;;;;;2.67;2.33;;;;;;;27.87;32.21;98200.09;5017648;28;20489;-86
2023/07/18 10:30:13;;;;;;;2.67;2.47;;;;;;;27.57;32.64;98192.34;5013564;28;20912;-89
2023/07/18 10:32:42;;;;;;;3.80;2.77;;;;;;;26.79;33.91;98135.72;5008895;28;21003;-89
2023/07/18 10:35:11;;;;;;;4.80;3.00;;;;;;;26.35;34.48;98064.00;5009633;28;20475;-87
2023/07/18 10:37:38;;;;;;;3.80;3.10;;;;;;;26.33;34.58;98028.22;4998075;28;20468;-89
2023/07/18 10:40:06;;;;;;;2.90;2.67;;;;;;;26.38;34.70;97972.63;5001612;28;20566;-91
2023/07/18 10:42:34;;;;;;;4.23;2.80;;;;;;;26.23;34.80;97931.25;5010895;28;20453;-88
2023/07/18 10:45:05;;;;;;;3.67;2.90;;;;;;;26.25;35.00;97967.84;5016166;28;20452;-89
2023/07/18 10:47:32;;;;;;;4.23;2.80;;;;;;;26.92;33.89;98000.75;5019459;28;20549;-91
2023/07/18 10:50:00;;;;;;;3.90;2.80;;;;;;;27.46;33.05;98018.50;5004119;28;21181;-89
2023/07/18 10:52:28;;;;;;;3.97;2.80;;;;;;;29.21;30.33;98060.00;5000964;28;21170;-89
2023/07/18 10:54:56;;;;;;;6.23;3.17;;;;;;;30.89;27.75;98075.81;4995314;28;20457;-91
2023/07/18 10:57:25;;;;;;;6.67;2.90;;;;;;;31.33;26.72;98079.31;4995291;28;20592;-89
2023/07/18 10:59:52;;;;;;;4.23;3.13;;;;;;;30.63;27.81;98095.47;4992851;28;20493;-90
2023/07/18 11:02:20;;;;;;;3.87;3.47;;;;;;;30.05;28.42;98133.09;4986635;28;20464;-84
2023/07/18 11:04:50;;;;;;;4.17;3.10;;;;;;;30.56;28.57;98178.97;4991812;28;20552;-88
2023/07/18 11:07:17;;;;;;;4.90;2.77;;;;;;;31.91;26.69;98190.47;4987271;28;20463;-86
2023/07/18 11:09:44;;;;;;;3.30;2.90;;;;;;;29.70;28.04;98209.50;4988033;28;20489;-91
2023/07/18 11:12:18;;;;;;;3.70;2.93;;;;;;;28.49;30.77;98250.53;4994462;28;20454;-91
2023/07/18 11:14:46;;;;;;;3.87;3.10;;;;;;;28.64;30.74;98252.09;4995374;28;20854;-88
2023/07/18 11:17:14;;;;;;;3.20;2.60;;;;;;;28.85;31.05;98232.97;4993833;28;20461;-90
2023/07/18 11:19:42;;;;;;;3.93;3.17;;;;;;;28.26;30.93;98216.25;4996486;28;20497;-90
2023/07/18 11:22:10;;;;;;;3.97;2.93;;;;;;;28.10;31.46;98206.53;4998956;28;20468;-91
2023/07/18 11:24:37;;;;;;;3.57;2.70;;;;;;;27.12;32.75;98199.59;4999536;28;20465;-89
2023/07/18 11:27:15;;;;;;;4.20;3.40;;;;;;;26.84;33.59;98204.25;5000446;28;20833;-89
2023/07/18 11:29:50;;;;;;;4.10;3.20;;;;;;;26.92;33.82;98226.59;4992873;28;20517;-89
2023/07/18 11:32:30;;;;;;;3.50;3.20;;;;;;;26.17;34.46;98254.38;4997724;28;20543;-87
2023/07/18 11:34:59;;;;;;;3.40;3.00;;;;;;;26.37;34.40;98223.56;4995126;28;20488;-85
2023/07/18 11:37:26;;;;;;;3.33;3.03;;;;;;;25.75;35.51;98199.72;4997245;28;20460;-84
2023/07/18 11:39:55;;;;;;;5.00;3.07;;;;;;;25.88;36.16;98207.31;5001023;28;20520;-83
2023/07/18 11:42:22;;;;;;;4.40;2.90;;;;;;;25.94;35.35;98220.00;5005446;28;20461;-83
2023/07/18 11:44:53;;;;;;;3.43;3.10;;;;;;;25.94;36.17;98200.59;4990826;28;20517;-83
2023/07/18 11:47:20;;;;;;;4.07;3.00;;;;;;;25.57;36.39;98181.06;4986953;28;21024;-84
2023/07/18 11:49:47;;;;;;;3.60;3.27;;;;;;;25.38;36.51;98164.38;4985369;28;21033;-83
2023/07/18 11:52:18;;;;;;;3.73;3.37;;;;;;;25.51;37.09;98138.72;4995962;28;20542;-83
2023/07/18 11:54:46;;;;;;;3.60;2.80;;;;;;;25.76;37.38;98127.31;4995035;28;20454;-83
2023/07/18 11:57:13;;;;;;;5.13;2.80;;;;;;;26.38;36.88;98127.25;4986839;28;20560;-85
2023/07/18 11:59:41;;;;;;;3.73;3.33;;;;;;;26.48;36.62;98121.53;4988266;28;20500;-84
2023/07/18 12:02:09;;;;;;;4.30;3.20;;;;;;;26.67;35.79;98122.28;4996197;28;20504;-84
2023/07/18 12:04:38;;;;;;;5.67;3.60;;;;;;;26.82;36.77;98095.38;4992903;28;20457;-87
2023/07/18 12:07:06;;;;;;;6.00;3.07;;;;;;;26.51;37.12;98073.72;4992751;28;20471;-90
2023/07/18 12:09:34;;;;;;;3.10;2.80;;;;;;;27.03;36.19;98046.66;4992386;28;20497;-89
2023/07/18 12:12:00;;;;;;;4.30;3.17;;;;;;;27.24;35.02;98025.66;4995108;28;20545;-87
2023/07/18 12:14:27;;;;;;;3.80;3.30;;;;;;;27.09;34.70;98007.34;4994095;28;20493;-89
2023/07/18 12:16:54;;;;;;;16.87;4.67;;;;;;;26.98;35.47;98000.34;5002614;28;20972;-83
2023/07/18 12:19:22;;;;;;;7.90;3.30;;;;;;;26.49;36.38;97983.53;4994974;28;20580;-84
2023/07/18 12:21:49;;;;;;;8.93;3.50;;;;;;;27.29;35.44;97983.81;4989843;28;20446;-85
2023/07/18 12:24:16;;;;;;;5.00;3.37;;;;;;;27.01;36.53;97982.22;4991460;28;20452;-85
2023/07/18 12:26:45;;;;;;;5.20;3.60;;;;;;;27.76;35.22;97974.13;4992202;28;20492;-85
2023/07/18 12:29:15;;;;;;;3.50;3.20;;;;;;;28.41;34.14;97969.97;4974593;28;20559;-84
2023/07/18 12:31:44;;;;;;;4.93;3.27;;;;;;;28.04;34.24;97971.22;4998365;28;20450;-85
2023/07/18 12:34:11;;;;;;;4.37;3.27;;;;;;;28.04;34.69;97968.44;4988390;28;20826;-86
2023/07/18 12:36:38;;;;;;;4.40;2.90;;;;;;;27.26;35.71;97966.97;5002173;28;20491;-86
2023/07/18 12:39:06;;;;;;;6.30;3.27;;;;;;;27.50;34.44;97961.13;4985870;28;21155;-85
2023/07/18 12:41:33;;;;;;;3.70;3.40;;;;;;;28.20;34.80;97968.88;4994186;28;20454;-85
2023/07/18 12:44:01;;;;;;;3.70;2.93;;;;;;;28.96;32.48;97969.56;4986275;28;20450;-85
2023/07/18 12:46:33;;;;;;;4.10;2.87;;;;;;;29.13;32.88;97974.38;4999287;28;20469;-84
2023/07/18 12:48:59;;;;;;;5.80;3.60;;;;;;;28.39;34.46;97977.84;5001005;28;20505;-84
2023/07/18 12:51:26;;;;;;;4.03;3.00;;;;;;;28.49;34.15;97977.56;5006261;28;20557;-86
2023/07/18 12:54:00;;;;;;;13.40;4.97;;;;;;;28.83;33.71;97970.53;5003708;28;20515;-86
2023/07/18 12:56:29;;;;;;;3.30;3.00;;;;;;;29.99;32.10;97975.28;5002861;28;20504;-86
2023/07/18 12:58:56;;;;;;;3.60;3.30;;;;;;;29.86;32.11;97976.25;4997351;28;20494;-86
2023/07/18 13:01:24;;;;;;;3.90;3.30;;;;;;;28.04;33.69;97982.34;4996934;28;20461;-86
2023/07/18 13:03:51;;;;;;;3.73;3.10;;;;;;;27.68;34.89;97977.66;4989562;28;20556;-84
2023/07/18 13:06:18;;;;;;;3.10;2.80;;;;;;;29.34;32.13;97967.84;4986254;28;20466;-85
2023/07/18 13:08:45;;;;;;;3.20;2.90;;;;;;;30.56;30.11;97965.75;4991046;28;20838;-86
2023/07/18 13:11:12;;;;;;;5.67;3.70;;;;;;;30.08;30.89;97950.97;4987893;28;20458;-86
2023/07/18 13:13:39;;;;;;;3.83;3.47;;;;;;;28.76;33.25;97955.06;4991451;28;20518;-85
2023/07/18 13:16:06;;;;;;;3.70;3.40;;;;;;;28.47;34.51;97949.22;4984919;28;20472;-85
2023/07/18 13:18:34;;;;;;;4.90;3.23;;;;;;;28.18;34.69;97948.88;4985530;28;20489;-83
2023/07/18 13:21:01;;;;;;;8.10;3.80;;;;;;;28.27;34.53;97938.63;4985614;28;20457;-83
2023/07/18 13:23:28;;;;;;;3.73;3.43;;;;;;;28.18;34.59;97943.31;4985960;28;20956;-83
2023/07/18 13:25:55;;;;;;;4.47;3.57;;;;;;;27.57;35.82;97937.31;4987971;28;20492;-83
2023/07/18 13:28:22;;;;;;;4.70;3.57;;;;;;;27.53;36.13;97921.56;4979221;28;26762;-84
2023/07/18 13:30:49;;;;;;;3.53;3.23;;;;;;;28.97;33.47;97909.88;4988371;28;20564;-83
2023/07/18 13:33:16;;;;;;;14.07;5.20;;;;;;;29.16;32.67;97918.78;4990217;28;21494;-84
2023/07/18 13:35:45;;;;;;;3.73;3.40;;;;;;;29.50;32.90;97919.97;4988652;28;20454;-84
2023/07/18 13:38:11;;;;;;;4.13;3.30;;;;;;;30.83;30.42;97915.03;4992567;28;20485;-85
2023/07/18 13:40:39;;;;;;;3.90;3.50;;;;;;;31.36;28.52;97917.16;4989501;28;20493;-85
2023/07/18 13:43:05;;;;;;;4.70;3.47;;;;;;;30.62;30.24;97908.56;4989884;28;20460;-85
2023/07/18 13:45:32;;;;;;;3.60;3.30;;;;;;;31.85;27.91;97911.81;4985364;28;20458;-86
2023/07/18 13:47:59;;;;;;;3.43;3.13;;;;;;;30.90;29.58;97914.50;4992782;28;20489;-86
2023/07/18 13:50:26;;;;;;;3.30;3.10;;;;;;;30.35;29.59;97907.84;4991672;28;20964;-85
2023/07/18 13:52:56;;;;;;;3.40;3.10;;;;;;;30.28;30.02;97909.50;4987125;28;20473;-85
2023/07/18 13:55:23;;;;;;;4.20;3.50;;;;;;;30.49;29.04;97910.44;4934588;28;20980;-85
2023/07/18 13:57:49;;;;;;;5.53;3.90;;;;;;;31.45;28.46;97907.91;4984125;28;21066;-85
2023/07/18 14:00:17;;;;;;;4.00;3.70;;;;;;;32.65;27.18;97906.63;4986687;28;20504;-86
2023/07/18 14:02:44;;;;;;;3.37;3.13;;;;;;;31.89;28.58;97915.56;4988296;28;20485;-86
2023/07/18 14:05:10;;;;;;;5.00;3.37;;;;;;;31.35;28.43;97915.53;5008787;28;20825;-86
2023/07/18 14:07:38;;;;;;;3.73;3.33;;;;;;;28.91;31.27;97917.59;5011382;28;20460;-86
2023/07/18 14:10:07;;;;;;;3.43;3.03;;;;;;;28.70;31.74;97924.88;5014795;28;20468;-87
2023/07/18 14:12:34;;;;;;;4.03;3.73;;;;;;;29.67;30.43;97917.16;5015836;28;20540;-86
2023/07/18 14:15:02;;;;;;;4.07;3.67;;;;;;;28.55;31.67;97915.00;5014551;28;20566;-87
2023/07/18 14:17:29;;;;;;;3.80;3.50;;;;;;;28.96;31.17;97919.41;5008431;28;22524;-87
2023/07/18 14:19:57;;;;;;;3.37;3.03;;;;;;;29.74;31.23;97911.91;5005581;28;20495;-87
2023/07/18 14:22:24;;;;;;;4.07;3.67;;;;;;;30.01;29.63;97905.97;5010973;28;20476;-87
2023/07/18 14:24:51;;;;;;;3.60;3.30;;;;;;;30.96;28.77;97907.56;5024299;28;21082;-86
2023/07/18 14:27:19;;;;;;;5.00;3.63;;;;;;;31.34;28.49;97902.69;5028037;28;20483;-86
2023/07/18 14:29:47;;;;;;;3.70;3.30;;;;;;;31.45;28.96;97903.13;5009964;28;20553;-86
2023/07/18 14:32:14;;;;;;;3.50;3.20;;;;;;;29.97;30.63;97904.97;5016044;28;21126;-88
2023/07/18 14:34:41;;;;;;;4.50;3.70;;;;;;;30.00;30.59;97909.91;5019834;28;20449;-87
2023/07/18 14:37:07;;;;;;;4.37;3.90;;;;;;;29.80;30.92;97896.66;5020480;28;20955;-85
2023/07/18 14:39:39;;;;;;;4.63;3.87;;;;;;;30.19;31.10;97892.78;5014816;28;20486;-85
2023/07/18 14:42:07;;;;;;;6.60;3.50;;;;;;;29.65;32.04;97894.34;5014891;28;20461;-86